1878 Hurricane NOT_NAMED (1878220N15300)


IBTrACS version v04r00. Visit IBTrACS website for data access.
Please direct all questions to the IBTrACS Q and A forum

Storm track - Intensity - Wind Radii - Intensity Data - Source Data - All data

Summary Information

Storm ID 1878220N15300
Start Aug 8 00Z
Landfall Aug 18 18Z
Max Intensity 70 kt (Aug 15 00Z)
End Aug 19 06Z
ATCF IDs ,AL021878
Track status Best track data.

Storm track plot

Map of storm track

Intensity plots

Map of storm track

Radial wind information

No radial wind information for this storm


Position and Intensity Table

BASIN ISO_TIME_________ NATURE LAT LON WMO WIND USA WIND MLC WIND
degrees north degrees east kts kts kts
NA 1878-08-08 00:00:00 TS 15.00 -60.50 40 40
NA 03:00:00 TS 14.96 -60.75 40
NA 06:00:00 TS 14.90 -61.00 40 40
NA 09:00:00 TS 14.80 -61.26 40
NA 12:00:00 TS 14.70 -61.50 40 40
NA 15:00:00 TS 14.63 -61.70 40
NA 18:00:00 TS 14.60 -61.90 40 40
NA 21:00:00 TS 14.59 -62.15 40
NA 1878-08-09 00:00:00 TS 14.60 -62.40 40 40
NA 03:00:00 TS 14.61 -62.60 40
NA 06:00:00 TS 14.60 -62.80 40 40
NA 09:00:00 TS 14.55 -63.02 40
NA 12:00:00 TS 14.50 -63.30 40 40
NA 15:00:00 TS 14.50 -63.68 40
NA 18:00:00 TS 14.50 -64.10 40 40
NA 21:00:00 TS 14.45 -64.51 40
NA 1878-08-10 00:00:00 TS 14.40 -64.90 40 40
NA 03:00:00 TS 14.40 -65.24 40
NA 06:00:00 TS 14.40 -65.60 40 40
NA 09:00:00 TS 14.36 -66.02 40
NA 12:00:00 TS 14.30 -66.50 40 40
NA 15:00:00 TS 14.25 -67.04 40
NA 18:00:00 TS 14.20 -67.60 40 40
NA 21:00:00 TS 14.15 -68.08 40
NA 1878-08-11 00:00:00 TS 14.10 -68.60 40 40
NA 03:00:00 TS 14.04 -69.28 40
NA 06:00:00 TS 14.00 -70.00 40 40
NA 09:00:00 TS 13.98 -70.63 40
NA 12:00:00 TS 14.00 -71.30 40 40
NA 15:00:00 TS 14.04 -72.13 40
NA 18:00:00 TS 14.10 -73.00 40 40
NA 21:00:00 TS 14.19 -73.81 45
NA 1878-08-12 00:00:00 TS 14.30 -74.60 50 50
NA 03:00:00 TS 14.38 -75.37 50
NA 06:00:00 TS 14.50 -76.10 50 50
NA 09:00:00 TS 14.70 -76.83 50
NA 12:00:00 TS 15.00 -77.50 50 50
NA 15:00:00 TS 15.43 -78.08 50
NA 18:00:00 TS 15.90 -78.60 50 50
NA 21:00:00 TS 16.26 -79.11 50
NA 1878-08-13 00:00:00 TS 16.60 -79.60 50 50
NA 03:00:00 TS 17.01 -80.11 50
NA 06:00:00 TS 17.40 -80.60 50 50
NA 09:00:00 TS 17.71 -81.05 50
NA 12:00:00 TS 18.00 -81.50 50 50
NA 15:00:00 TS 18.34 -82.01 50
NA 18:00:00 TS 18.70 -82.50 50 50
NA 21:00:00 TS 19.10 -82.92 55
NA 1878-08-14 00:00:00 TS 19.50 -83.30 60 60
NA 03:00:00 TS 19.85 -83.69 60
NA 06:00:00 TS 20.20 -84.10 60 60
NA 09:00:00 TS 20.62 -84.56 60
NA 12:00:00 TS 20.78 -84.86 60 60 40
NA 15:00:00 TS 20.87 -85.09 60 40
NA 18:00:00 TS 20.95 -85.33 60 60 40
NA 21:00:00 TS 21.09 -85.58 65 45
NA 1878-08-15 00:00:00 TS 21.33 -85.90 70 70 50
NA 03:00:00 TS 21.58 -86.27 70 50
NA 06:00:00 TS 21.80 -86.67 70 70 50
NA 09:00:00 TS 21.99 -87.06 70 50
NA 12:00:00 TS 22.13 -87.43 70 70 50
NA 15:00:00 TS 22.25 -87.78 70 55
NA 18:00:00 TS 22.33 -88.13 70 70 60
NA 21:00:00 TS 22.42 -88.57 70 60
NA 1878-08-16 00:00:00 TS 22.50 -89.00 70 70 60
NA 03:00:00 TS 22.56 -89.36 70 60
NA 06:00:00 TS 22.60 -89.70 70 70 60
NA 09:00:00 TS 22.63 -90.08 70 62
NA 12:00:00 TS 22.67 -90.47 70 70 65
NA 15:00:00 TS 22.72 -90.85 70 65
NA 18:00:00 TS 22.77 -91.27 70 70 65
NA 21:00:00 TS 22.80 -91.75 70 65
NA 1878-08-17 00:00:00 TS 22.83 -92.23 70 70 65
NA 03:00:00 TS 22.87 -92.66 70 65
NA 06:00:00 TS 22.90 -93.07 70 70 65
NA 09:00:00 TS 22.92 -93.52 70 65
NA 12:00:00 TS 22.93 -93.97 70 70 65
NA 15:00:00 TS 22.95 -94.34 70 65
NA 18:00:00 TS 22.97 -94.70 70 70 65
NA 21:00:00 TS 22.95 -95.08 70 65
NA 1878-08-18 00:00:00 TS 22.93 -95.47 70 70 65
NA 03:00:00 TS 22.95 -95.87 70 65
NA 06:00:00 TS 22.97 -96.30 70 70 65
NA 09:00:00 TS 22.97 -96.75 70 65
NA 12:00:00 TS 22.97 -97.20 70 70 65
NA 15:00:00 TS 22.98 -97.66 55 65
NA 18:00:00 TS 23.08 -98.02 40 40 65
NA 21:00:00 TS 23.22 -98.27 35 62
NA 1878-08-19 00:00:00 TS 23.40 -98.48 30 30 60
NA 03:00:00 TS 24.14 -98.35 50
NA 06:00:00 TS 24.30 -98.70 40

Source Information

Agency Information
USA hurdat2-1851-2018-051019.txt:Line=3385:UNNAMED
TOKYO
CMA
HKO
NEWDELHI
REUNION
BOM
NADI
WELLINGTON
DS824
TD9636
TD9635
NEUMANN
MLC

All available IBTrACS Data

SEASON BASIN SUBBASIN ISO_TIME_________ NATURE LAT LON WMO WIND WMO AGENCY DIST2LAND LANDFALL IFLAG USA AGENCY USA ATCF_ID USA LAT USA LON USA STATUS USA WIND USA SSHS MLC LAT MLC LON MLC CLASS MLC WIND STORM SPEED STORM DIR
Year degrees north degrees east kts km km degrees north degrees east kts 1 degrees north degrees east kts kts degrees
1878 NA CS 1878-08-08 00:00:00 TS 15.00 -60.50 40 hurdat_atl 484 482 O_____________ hurdat_atl AL021878 15.00 -60.50 TS 40 0 5 261
1878 NA CS 03:00:00 TS 14.96 -60.75 482 470 P_____________ AL021878 14.96 -60.75 TS 40 0 5 258
1878 NA CS 06:00:00 TS 14.90 -61.00 40 hurdat_atl 470 459 O_____________ hurdat_atl AL021878 14.90 -61.00 TS 40 0 5 252
1878 NA CS 09:00:00 TS 14.80 -61.26 459 447 P_____________ AL021878 14.80 -61.26 TS 40 0 5 248
1878 NA CS 12:00:00 TS 14.70 -61.50 40 hurdat_atl 447 436 O_____________ hurdat_atl AL021878 14.70 -61.50 TS 40 0 5 249
1878 NA CS 15:00:00 TS 14.63 -61.70 436 436 P_____________ AL021878 14.63 -61.70 TS 40 0 4 256
1878 NA CS 18:00:00 TS 14.60 -61.90 40 hurdat_atl 437 436 O_____________ hurdat_atl AL021878 14.60 -61.90 TS 40 0 4 264
1878 NA CS 21:00:00 TS 14.59 -62.15 436 436 P_____________ AL021878 14.59 -62.15 TS 40 0 5 270
1878 NA CS 1878-08-09 00:00:00 TS 14.60 -62.40 40 hurdat_atl 436 436 O_____________ hurdat_atl AL021878 14.60 -62.40 TS 40 0 4 272
1878 NA CS 03:00:00 TS 14.61 -62.60 436 436 P_____________ AL021878 14.61 -62.60 TS 40 0 4 270
1878 NA CS 06:00:00 TS 14.60 -62.80 40 hurdat_atl 436 436 O_____________ hurdat_atl AL021878 14.60 -62.80 TS 40 0 4 262
1878 NA CS 09:00:00 TS 14.55 -63.02 425 425 P_____________ AL021878 14.55 -63.02 TS 40 0 5 258
1878 NA CS 12:00:00 TS 14.50 -63.30 40 hurdat_atl 426 426 O_____________ hurdat_atl AL021878 14.50 -63.30 TS 40 0 6 266
1878 NA CS 15:00:00 TS 14.50 -63.68 430 430 P_____________ AL021878 14.50 -63.68 TS 40 0 8 270
1878 NA CS 18:00:00 TS 14.50 -64.10 40 hurdat_atl 431 415 O_____________ hurdat_atl AL021878 14.50 -64.10 TS 40 0 8 266
1878 NA CS 21:00:00 TS 14.45 -64.51 426 414 P_____________ AL021878 14.45 -64.51 TS 40 0 8 263
1878 NA CS 1878-08-10 00:00:00 TS 14.40 -64.90 40 hurdat_atl 414 406 O_____________ hurdat_atl AL021878 14.40 -64.90 TS 40 0 7 266
1878 NA CS 03:00:00 TS 14.40 -65.24 406 396 P_____________ AL021878 14.40 -65.24 TS 40 0 7 270
1878 NA CS 06:00:00 TS 14.40 -65.60 40 hurdat_atl 396 392 O_____________ hurdat_atl AL021878 14.40 -65.60 TS 40 0 8 267
1878 NA CS 09:00:00 TS 14.36 -66.02 392 391 P_____________ AL021878 14.36 -66.02 TS 40 0 9 263
1878 NA CS 12:00:00 TS 14.30 -66.50 40 hurdat_atl 403 378 O_____________ hurdat_atl AL021878 14.30 -66.50 TS 40 0 10 264
1878 NA CS 15:00:00 TS 14.25 -67.04 378 339 P_____________ AL021878 14.25 -67.04 TS 40 0 11 265
1878 NA CS 18:00:00 TS 14.20 -67.60 40 hurdat_atl 339 305 O_____________ hurdat_atl AL021878 14.20 -67.60 TS 40 0 10 264
1878 NA CS 21:00:00 TS 14.15 -68.08 296 264 P_____________ AL021878 14.15 -68.08 TS 40 0 10 264
1878 NA CS 1878-08-11 00:00:00 TS 14.10 -68.60 40 hurdat_atl 264 225 O_____________ hurdat_atl AL021878 14.10 -68.60 TS 40 0 12 265
1878 NA CS 03:00:00 TS 14.04 -69.28 222 212 P_____________ AL021878 14.04 -69.28 TS 40 0 14 266
1878 NA CS 06:00:00 TS 14.00 -70.00 40 hurdat_atl 212 203 O_____________ hurdat_atl AL021878 14.00 -70.00 TS 40 0 13 267
1878 NA CS 09:00:00 TS 13.98 -70.63 203 180 P_____________ AL021878 13.98 -70.63 TS 40 0 13 270
1878 NA CS 12:00:00 TS 14.00 -71.30 40 hurdat_atl 180 179 O_____________ hurdat_atl AL021878 14.00 -71.30 TS 40 0 15 272
1878 NA CS 15:00:00 TS 14.04 -72.13 184 184 P_____________ AL021878 14.04 -72.13 TS 40 0 17 273
1878 NA CS 18:00:00 TS 14.10 -73.00 40 hurdat_atl 228 228 O_____________ hurdat_atl AL021878 14.10 -73.00 TS 40 0 16 275
1878 NA CS 21:00:00 TS 14.19 -73.81 283 283 P_____________ AL021878 14.19 -73.81 TS 45 0 16 277
1878 NA CS 1878-08-12 00:00:00 TS 14.30 -74.60 50 hurdat_atl 349 349 O_____________ hurdat_atl AL021878 14.30 -74.60 TS 50 0 15 277
1878 NA CS 03:00:00 TS 14.38 -75.37 381 376 P_____________ AL021878 14.38 -75.37 TS 50 0 15 278
1878 NA CS 06:00:00 TS 14.50 -76.10 50 hurdat_atl 376 338 O_____________ hurdat_atl AL021878 14.50 -76.10 TS 50 0 15 283
1878 NA CS 09:00:00 TS 14.70 -76.83 338 302 P_____________ AL021878 14.70 -76.83 TS 50 0 14 290
1878 NA CS 12:00:00 TS 15.00 -77.50 50 hurdat_atl 303 271 O_____________ hurdat_atl AL021878 15.00 -77.50 TS 50 0 14 301
1878 NA CS 15:00:00 TS 15.43 -78.08 274 239 P_____________ AL021878 15.43 -78.08 TS 50 0 14 310
1878 NA CS 18:00:00 TS 15.90 -78.60 50 hurdat_atl 243 232 O_____________ hurdat_atl AL021878 15.90 -78.60 TS 50 0 13 310
1878 NA CS 21:00:00 TS 16.26 -79.11 225 213 P_____________ AL021878 16.26 -79.11 TS 50 0 12 306
1878 NA CS 1878-08-13 00:00:00 TS 16.60 -79.60 50 hurdat_atl 219 215 O_____________ hurdat_atl AL021878 16.60 -79.60 TS 50 0 12 308
1878 NA CS 03:00:00 TS 17.01 -80.11 224 224 P_____________ AL021878 17.01 -80.11 TS 50 0 13 310
1878 NA CS 06:00:00 TS 17.40 -80.60 50 hurdat_atl 249 249 O_____________ hurdat_atl AL021878 17.40 -80.60 TS 50 0 11 308
1878 NA CS 09:00:00 TS 17.71 -81.05 291 289 P_____________ AL021878 17.71 -81.05 TS 50 0 10 305
1878 NA CS 12:00:00 TS 18.00 -81.50 50 hurdat_atl 328 328 O_____________ hurdat_atl AL021878 18.00 -81.50 TS 50 0 11 305
1878 NA CS 15:00:00 TS 18.34 -82.01 356 303 P_____________ AL021878 18.34 -82.01 TS 50 0 12 306
1878 NA CS 18:00:00 TS 18.70 -82.50 50 hurdat_atl 303 257 O_____________ hurdat_atl AL021878 18.70 -82.50 TS 50 0 12 312
1878 NA CS 21:00:00 TS 19.10 -82.92 257 218 P_____________ AL021878 19.10 -82.92 TS 55 0 11 317
1878 NA CS 1878-08-14 00:00:00 TS 19.50 -83.30 60 hurdat_atl 218 197 O_____________ hurdat_atl AL021878 19.50 -83.30 TS 60 0 11 316
1878 NA CS 03:00:00 TS 19.85 -83.69 201 182 P_____________ AL021878 19.85 -83.69 TS 60 0 10 313
1878 NA CS 06:00:00 TS 20.20 -84.10 60 hurdat_atl 183 134 O_____________ hurdat_atl AL021878 20.20 -84.10 TS 60 0 11 313
1878 NA CS 09:00:00 TS 20.62 -84.56 134 111 P_____________ AL021878 20.62 -84.56 TS 60 0 9 309
1878 NA CS 12:00:00 TS 20.78 -84.86 60 hurdat_atl 112 102 O____________O hurdat_atl AL021878 21.00 -85.00 TS 60 0 19.00 -83.70 TS 40 6 297
1878 NA CS 15:00:00 TS 20.87 -85.09 105 105 P____________P AL021878 21.27 -85.33 TS 60 0 19.25 -84.15 TS 40 5 292
1878 NA CS 18:00:00 TS 20.95 -85.33 60 hurdat_atl 103 103 O____________O hurdat_atl AL021878 21.50 -85.60 TS 60 0 19.50 -84.60 TS 40 5 296
1878 NA CS 21:00:00 TS 21.09 -85.58 108 85 P____________P AL021878 21.75 -85.84 TS 65 1 19.76 -85.05 TS 45 7 305
1878 NA CS 1878-08-15 00:00:00 TS 21.33 -85.90 70 hurdat_atl 85 61 O____________O hurdat_atl AL021878 22.00 -86.10 HU 70 1 20.00 -85.50 TS 50 8 307
1878 NA CS 03:00:00 TS 21.58 -86.27 61 45 P____________P AL021878 22.27 -86.43 HU 70 1 20.21 -85.95 TS 50 9 303
1878 NA GM 06:00:00 TS 21.80 -86.67 70 hurdat_atl 45 39 O____________O hurdat_atl AL021878 22.50 -86.80 HU 70 1 20.40 -86.40 TS 50 8 299
1878 NA GM 09:00:00 TS 21.99 -87.06 55 55 P____________P AL021878 22.68 -87.16 HU 70 1 20.60 -86.85 TS 50 8 295
1878 NA GM 12:00:00 TS 22.13 -87.43 70 hurdat_atl 73 70 O____________O hurdat_atl AL021878 22.80 -87.50 HU 70 1 20.80 -87.30 TS 50 7 291
1878 NA GM 15:00:00 TS 22.25 -87.78 78 78 P____________P AL021878 22.86 -87.79 HU 70 1 21.01 -87.76 TS 55 7 287
1878 NA GM 18:00:00 TS 22.33 -88.13 70 hurdat_atl 89 89 O____________O hurdat_atl AL021878 22.90 -88.10 HU 70 1 21.20 -88.20 TS 60 8 284
1878 NA GM 21:00:00 TS 22.42 -88.57 100 100 P____________P AL021878 22.96 -88.55 HU 70 1 21.36 -88.60 TS 60 8 282
1878 NA GM 1878-08-16 00:00:00 TS 22.50 -89.00 70 hurdat_atl 119 119 O____________O hurdat_atl AL021878 23.00 -89.00 HU 70 1 21.50 -89.00 TS 60 7 280
1878 NA GM 03:00:00 TS 22.56 -89.36 145 145 P____________P AL021878 23.01 -89.32 HU 70 1 21.66 -89.44 TS 60 7 279
1878 NA GM 06:00:00 TS 22.60 -89.70 70 hurdat_atl 151 151 O____________O hurdat_atl AL021878 23.00 -89.60 HU 70 1 21.80 -89.90 TS 60 7 277
1878 NA GM 09:00:00 TS 22.63 -90.08 157 157 P____________P AL021878 23.00 -89.94 HU 70 1 21.90 -90.36 TS 62 7 275
1878 NA GM 12:00:00 TS 22.67 -90.47 70 hurdat_atl 178 178 O____________O hurdat_atl AL021878 23.00 -90.30 HU 70 1 22.00 -90.80 HU 65 7 277
1878 NA GM 15:00:00 TS 22.72 -90.85 189 189 P____________P AL021878 23.00 -90.68 HU 70 1 22.15 -91.20 HU 65 7 278
1878 NA GM 18:00:00 TS 22.77 -91.27 70 hurdat_atl 216 216 O____________O hurdat_atl AL021878 23.00 -91.10 HU 70 1 22.30 -91.60 HU 65 8 276
1878 NA GM 21:00:00 TS 22.80 -91.75 238 238 P____________P AL021878 23.00 -91.59 HU 70 1 22.41 -92.06 HU 65 9 274
1878 NA GM 1878-08-17 00:00:00 TS 22.83 -92.23 70 hurdat_atl 272 272 O____________O hurdat_atl AL021878 23.00 -92.10 HU 70 1 22.50 -92.50 HU 65 8 275
1878 NA GM 03:00:00 TS 22.87 -92.66 318 318 P____________P AL021878 23.00 -92.55 HU 70 1 22.61 -92.87 HU 65 8 275
1878 NA GM 06:00:00 TS 22.90 -93.07 70 hurdat_atl 351 351 O____________O hurdat_atl AL021878 23.00 -93.00 HU 70 1 22.70 -93.20 HU 65 8 274
1878 NA GM 09:00:00 TS 22.92 -93.52 386 378 P____________P AL021878 23.00 -93.51 HU 70 1 22.76 -93.56 HU 65 8 272
1878 NA GM 12:00:00 TS 22.93 -93.97 70 hurdat_atl 369 345 O____________O hurdat_atl AL021878 23.00 -94.00 HU 70 1 22.80 -93.90 HU 65 8 273
1878 NA GM 15:00:00 TS 22.95 -94.34 345 309 P____________P AL021878 23.01 -94.41 HU 70 1 22.85 -94.20 HU 65 7 273
1878 NA GM 18:00:00 TS 22.97 -94.70 70 hurdat_atl 309 275 O____________O hurdat_atl AL021878 23.00 -94.80 HU 70 1 22.90 -94.50 HU 65 7 270
1878 NA GM 21:00:00 TS 22.95 -95.08 268 243 P____________P AL021878 22.96 -95.19 HU 70 1 22.93 -94.84 HU 65 7 267
1878 NA GM 1878-08-18 00:00:00 TS 22.93 -95.47 70 hurdat_atl 235 194 O____________O hurdat_atl AL021878 22.90 -95.60 HU 70 1 23.00 -95.20 HU 65 7 270
1878 NA GM 03:00:00 TS 22.95 -95.87 194 153 P____________P AL021878 22.85 -96.03 HU 70 1 23.14 -95.55 HU 65 8 272
1878 NA GM 06:00:00 TS 22.97 -96.30 70 hurdat_atl 153 112 O____________O hurdat_atl AL021878 22.80 -96.50 HU 70 1 23.30 -95.90 HU 65 8 271
1878 NA GM 09:00:00 TS 22.97 -96.75 112 61 P____________P AL021878 22.75 -96.99 HU 70 1 23.40 -96.25 HU 65 8 270
1878 NA GM 12:00:00 TS 22.97 -97.20 70 hurdat_atl 61 20 O____________O hurdat_atl AL021878 22.70 -97.50 HU 70 1 23.50 -96.60 HU 65 8 271
1878 NA GM 15:00:00 TS 22.98 -97.66 10 0 P____________P AL021878 22.65 -98.02 HU 55 0 23.65 -96.95 HU 65 8 279
1878 NA NA 18:00:00 TS 23.08 -98.02 40 hurdat_atl 0 0 O____________O hurdat_atl AL021878 22.60 -98.50 TS 40 0 23.80 -97.30 HU 65 6 294
1878 NA NA 21:00:00 TS 23.22 -98.27 0 0 P____________P AL021878 22.55 -98.88 TS 35 0 23.90 -97.65 HU 62 5 307
1878 NA NA 1878-08-19 00:00:00 TS 23.40 -98.48 30 hurdat_atl 0 0 O____________O hurdat_atl AL021878 22.50 -99.20 TD 30 -1 24.00 -98.00 TS 60 9 355
1878 NA NA 03:00:00 TS 24.14 -98.35 0 0 _____________P AL021878 TD -1 24.14 -98.35 TS 50 9 347
1878 NA NA 06:00:00 TS 24.30 -98.70 0 _____________O 24.30 -98.70 TS 40 7 297